Terminal Aerodrome Forecast
Issued by NWS Wichita, KS

Home | Current Version | Previous Version | Text Only | Print | Product List | Glossary On
Versions: 1 2 3 4 5 6 7 8 9 10 11 12 13 14 15 16 17 18 19 20 21 22 23 24 25 26 27
000
FTUS43 KICT 180520
TAFICT
TAF
KICT 180520Z 1806/1906 14005KT P6SM SKC
     FM181000 17013KT P6SM SKC WS020/19040KT
     FM181400 17016G22KT P6SM SCT250
     FM181700 18025G35KT P6SM SCT250
     FM190200 18022G30KT P6SM SCT045
     FM190400 18021G29KT P6SM BKN035=

USA.gov is the U.S. government's official web portal to all federal, state and local government web resources and services.